RYR537R EGBB-LFOB
Flight info
| Callsign | RYR537R |
|---|---|
| Flight time | 0h 50m |
| Altitude | 23000 |
| Route | COWLY L612 WOD/N0400F290 UM605 XIDIL/N0337F190 M605 PETAX/N0329F170 J150 VELOL |
| Aircraft | B738/M-SDE3FGILRWY/SB1 |
Departure
| Time | 2026-04-23 19:04 |
|---|---|
| Airport | Birmingham Airport (EGBB) |
Arrival
| Time | 2026-04-23 19:55 |
|---|---|
| Airport | Beauvais-Tillé airport (LFOB) |
| Time | Latitude | Longitude | Altitude | Speed | Heading |
|---|---|---|---|---|---|
| 2026-04-23 18:35 | 52.45354 | -1.73630 | 319 ft | 0 kts | 146° |
| 2026-04-23 18:51 | 52.45357 | -1.73634 | 322 ft | 3 kts | 146° |
| 2026-04-23 18:51 | 52.45375 | -1.73654 | 318 ft | 3 kts | 146° |
| 2026-04-23 18:51 | 52.45398 | -1.73675 | 319 ft | 4 kts | 159° |
| 2026-04-23 18:52 | 52.45423 | -1.73684 | 318 ft | 4 kts | 190° |
| 2026-04-23 18:52 | 52.45440 | -1.73671 | 319 ft | 1 kts | 236° |
| 2026-04-23 18:52 | 52.45431 | -1.73693 | 322 ft | 0 kts | 236° |
| 2026-04-23 18:56 | 52.45427 | -1.73702 | 322 ft | 4 kts | 236° |
| 2026-04-23 18:56 | 52.45384 | -1.73806 | 322 ft | 13 kts | 236° |
| 2026-04-23 18:56 | 52.45327 | -1.73943 | 322 ft | 15 kts | 236° |
| 2026-04-23 18:56 | 52.45325 | -1.74083 | 322 ft | 13 kts | 296° |
| 2026-04-23 18:57 | 52.45364 | -1.74211 | 322 ft | 12 kts | 297° |
| 2026-04-23 18:57 | 52.45403 | -1.74336 | 321 ft | 12 kts | 296° |
| 2026-04-23 18:57 | 52.45440 | -1.74459 | 322 ft | 12 kts | 296° |
| 2026-04-23 18:57 | 52.45480 | -1.74577 | 321 ft | 12 kts | 312° |
| 2026-04-23 18:58 | 52.45555 | -1.74663 | 321 ft | 15 kts | 326° |
| 2026-04-23 18:58 | 52.45667 | -1.74786 | 313 ft | 23 kts | 326° |
| 2026-04-23 18:58 | 52.45820 | -1.74957 | 310 ft | 29 kts | 325° |
| 2026-04-23 18:58 | 52.45996 | -1.75151 | 304 ft | 31 kts | 326° |
| 2026-04-23 18:59 | 52.46165 | -1.75340 | 304 ft | 24 kts | 326° |
| 2026-04-23 18:59 | 52.46222 | -1.75439 | 302 ft | 11 kts | 271° |
| 2026-04-23 18:59 | 52.46208 | -1.75486 | 305 ft | 0 kts | 233° |
| 2026-04-23 19:01 | 52.46206 | -1.75489 | 305 ft | 1 kts | 233° |
| 2026-04-23 19:01 | 52.46205 | -1.75493 | 305 ft | 0 kts | 233° |
| 2026-04-23 19:02 | 52.46200 | -1.75503 | 306 ft | 2 kts | 233° |
| 2026-04-23 19:02 | 52.46182 | -1.75544 | 310 ft | 6 kts | 234° |
| 2026-04-23 19:03 | 52.46151 | -1.75619 | 308 ft | 8 kts | 235° |
| 2026-04-23 19:03 | 52.46123 | -1.75620 | 308 ft | 4 kts | 148° |
| 2026-04-23 19:03 | 52.46048 | -1.75538 | 309 ft | 35 kts | 146° |
| 2026-04-23 19:03 | 52.45657 | -1.75103 | 323 ft | 100 kts | 145° |
| 2026-04-23 19:04 | 52.44924 | -1.74289 | 328 ft | 152 kts | 144° |
| 2026-04-23 19:04 | 52.43993 | -1.73276 | 812 ft | 160 kts | 143° |
| 2026-04-23 19:04 | 52.43069 | -1.72343 | 1686 ft | 153 kts | 146° |
| 2026-04-23 19:04 | 52.42102 | -1.71441 | 2144 ft | 173 kts | 146° |
| 2026-04-23 19:05 | 52.40980 | -1.70384 | 2441 ft | 196 kts | 149° |
| 2026-04-23 19:05 | 52.39743 | -1.69324 | 2944 ft | 204 kts | 150° |
| 2026-04-23 19:05 | 52.38469 | -1.68255 | 3605 ft | 207 kts | 150° |
| 2026-04-23 19:05 | 52.37172 | -1.67174 | 4256 ft | 210 kts | 150° |
| 2026-04-23 19:06 | 52.35862 | -1.66085 | 4926 ft | 212 kts | 150° |
| 2026-04-23 19:06 | 52.34543 | -1.64985 | 5589 ft | 214 kts | 150° |
| 2026-04-23 19:06 | 52.33213 | -1.63876 | 6266 ft | 215 kts | 150° |
| 2026-04-23 19:06 | 52.31864 | -1.62758 | 6917 ft | 219 kts | 150° |
| 2026-04-23 19:07 | 52.30492 | -1.61616 | 7526 ft | 224 kts | 150° |
| 2026-04-23 19:07 | 52.29097 | -1.60451 | 8215 ft | 226 kts | 150° |
| 2026-04-23 19:07 | 52.27688 | -1.59267 | 8898 ft | 229 kts | 150° |
| 2026-04-23 19:07 | 52.26267 | -1.58082 | 9656 ft | 229 kts | 150° |
| 2026-04-23 19:08 | 52.24834 | -1.56911 | 10363 ft | 233 kts | 150° |
| 2026-04-23 19:08 | 52.23335 | -1.55694 | 10734 ft | 251 kts | 150° |
| 2026-04-23 19:08 | 52.21693 | -1.54352 | 10939 ft | 276 kts | 150° |
| 2026-04-23 19:08 | 52.19904 | -1.52877 | 11122 ft | 301 kts | 150° |
| 2026-04-23 19:09 | 52.17963 | -1.51258 | 11303 ft | 325 kts | 150° |
| 2026-04-23 19:09 | 52.15911 | -1.49528 | 11737 ft | 337 kts | 150° |
| 2026-04-23 19:09 | 52.13820 | -1.47759 | 12443 ft | 341 kts | 150° |
| 2026-04-23 19:09 | 52.11708 | -1.45979 | 13208 ft | 344 kts | 150° |
| 2026-04-23 19:10 | 52.09595 | -1.44202 | 13931 ft | 348 kts | 150° |
| 2026-04-23 19:10 | 52.07433 | -1.42387 | 14664 ft | 351 kts | 150° |
| 2026-04-23 19:10 | 52.05251 | -1.40560 | 15394 ft | 354 kts | 150° |
| 2026-04-23 19:10 | 52.03016 | -1.38689 | 16079 ft | 358 kts | 150° |
| 2026-04-23 19:11 | 52.00800 | -1.36836 | 16873 ft | 359 kts | 150° |
| 2026-04-23 19:11 | 51.98572 | -1.34970 | 17633 ft | 362 kts | 150° |
| 2026-04-23 19:11 | 51.96369 | -1.33118 | 18495 ft | 360 kts | 150° |
| 2026-04-23 19:11 | 51.94144 | -1.31237 | 19070 ft | 361 kts | 150° |
| 2026-04-23 19:12 | 51.92646 | -1.29966 | 19291 ft | 358 kts | 150° |
| 2026-04-23 19:12 | 51.89724 | -1.27474 | 19361 ft | 358 kts | 150° |
| 2026-04-23 19:12 | 51.87521 | -1.25592 | 19370 ft | 357 kts | 150° |
| 2026-04-23 19:12 | 51.85332 | -1.23720 | 19379 ft | 356 kts | 150° |
| 2026-04-23 19:13 | 51.83849 | -1.22452 | 19389 ft | 357 kts | 150° |
| 2026-04-23 19:13 | 51.80910 | -1.19934 | 20006 ft | 362 kts | 150° |
| 2026-04-23 19:13 | 51.78702 | -1.18036 | 20915 ft | 356 kts | 150° |
| 2026-04-23 19:13 | 51.76546 | -1.16167 | 21922 ft | 348 kts | 150° |
| 2026-04-23 19:14 | 51.75127 | -1.14897 | 22568 ft | 344 kts | 150° |
| 2026-04-23 19:14 | 51.73042 | -1.12997 | 23135 ft | 345 kts | 150° |
| 2026-04-23 19:14 | 51.70961 | -1.11090 | 23382 ft | 344 kts | 150° |
| 2026-04-23 19:14 | 51.68883 | -1.09189 | 23368 ft | 342 kts | 150° |
| 2026-04-23 19:15 | 51.66813 | -1.07303 | 23375 ft | 341 kts | 150° |
| 2026-04-23 19:15 | 51.64748 | -1.05427 | 23381 ft | 340 kts | 150° |
| 2026-04-23 19:15 | 51.62682 | -1.03555 | 23381 ft | 340 kts | 150° |
| 2026-04-23 19:15 | 51.60623 | -1.01693 | 23382 ft | 340 kts | 150° |
| 2026-04-23 19:16 | 51.58559 | -0.99828 | 23379 ft | 340 kts | 150° |
| 2026-04-23 19:16 | 51.56498 | -0.97969 | 23384 ft | 340 kts | 150° |
| 2026-04-23 19:16 | 51.54433 | -0.96109 | 23369 ft | 341 kts | 150° |
| 2026-04-23 19:17 | 51.50363 | -0.92446 | 23361 ft | 329 kts | 151° |
| 2026-04-23 19:17 | 51.48367 | -0.90654 | 23375 ft | 330 kts | 151° |
| 2026-04-23 19:17 | 51.46359 | -0.88848 | 23380 ft | 332 kts | 150° |
| 2026-04-23 19:17 | 51.44453 | -0.86733 | 23370 ft | 334 kts | 140° |
| 2026-04-23 19:18 | 51.42729 | -0.84235 | 23386 ft | 335 kts | 139° |
| 2026-04-23 19:18 | 51.41022 | -0.81700 | 23376 ft | 336 kts | 139° |
| 2026-04-23 19:18 | 51.39309 | -0.79151 | 23375 ft | 336 kts | 139° |
| 2026-04-23 19:18 | 51.37599 | -0.76611 | 23375 ft | 335 kts | 139° |
| 2026-04-23 19:19 | 51.34184 | -0.71565 | 23374 ft | 334 kts | 139° |
| 2026-04-23 19:19 | 51.32473 | -0.69049 | 23381 ft | 333 kts | 139° |
| 2026-04-23 19:20 | 51.29065 | -0.64052 | 23371 ft | 332 kts | 139° |
| 2026-04-23 19:20 | 51.27364 | -0.61563 | 23371 ft | 331 kts | 139° |
| 2026-04-23 19:20 | 51.25667 | -0.59085 | 23375 ft | 330 kts | 139° |
| 2026-04-23 19:20 | 51.23997 | -0.56647 | 23374 ft | 330 kts | 139° |
| 2026-04-23 19:21 | 51.22283 | -0.54149 | 23372 ft | 329 kts | 139° |
| 2026-04-23 19:21 | 51.18906 | -0.49235 | 23373 ft | 329 kts | 139° |
| 2026-04-23 19:21 | 51.17236 | -0.46809 | 23372 ft | 329 kts | 139° |
| 2026-04-23 19:22 | 51.15526 | -0.44326 | 23383 ft | 329 kts | 139° |
| 2026-04-23 19:22 | 51.13853 | -0.41902 | 23378 ft | 330 kts | 139° |
| 2026-04-23 19:22 | 51.10455 | -0.36983 | 23378 ft | 331 kts | 139° |
| 2026-04-23 19:23 | 51.08751 | -0.34519 | 23371 ft | 331 kts | 139° |
| 2026-04-23 19:23 | 51.07047 | -0.32059 | 23375 ft | 331 kts | 139° |
| 2026-04-23 19:23 | 51.05342 | -0.29599 | 23375 ft | 331 kts | 139° |
| 2026-04-23 19:24 | 51.01925 | -0.24677 | 23375 ft | 331 kts | 139° |
| 2026-04-23 19:24 | 51.00217 | -0.22222 | 23375 ft | 331 kts | 139° |
| 2026-04-23 19:24 | 50.96799 | -0.17313 | 23351 ft | 331 kts | 139° |
| 2026-04-23 19:25 | 50.93383 | -0.12419 | 23352 ft | 331 kts | 139° |
| 2026-04-23 19:25 | 50.89972 | -0.07541 | 23351 ft | 330 kts | 139° |
| 2026-04-23 19:26 | 50.86561 | -0.02673 | 23363 ft | 330 kts | 139° |
| 2026-04-23 19:26 | 50.84855 | -0.00242 | 23343 ft | 330 kts | 139° |
| 2026-04-23 19:27 | 50.82318 | 0.03370 | 23364 ft | 330 kts | 139° |
| 2026-04-23 19:27 | 50.77210 | 0.10622 | 23363 ft | 329 kts | 139° |
| 2026-04-23 19:28 | 50.75624 | 0.12860 | 23362 ft | 329 kts | 140° |
| 2026-04-23 19:28 | 50.72072 | 0.17432 | 23363 ft | 329 kts | 142° |
| 2026-04-23 19:29 | 50.70282 | 0.19680 | 23366 ft | 329 kts | 142° |
| 2026-04-23 19:29 | 50.67205 | 0.23564 | 23361 ft | 329 kts | 142° |
| 2026-04-23 19:30 | 50.64412 | 0.27109 | 23371 ft | 329 kts | 142° |
| 2026-04-23 19:30 | 50.62628 | 0.29377 | 23373 ft | 329 kts | 142° |
| 2026-04-23 19:30 | 50.59067 | 0.33896 | 23355 ft | 329 kts | 142° |
| 2026-04-23 19:31 | 50.57289 | 0.36152 | 23358 ft | 328 kts | 142° |
| 2026-04-23 19:31 | 50.55515 | 0.38410 | 23357 ft | 328 kts | 142° |
| 2026-04-23 19:31 | 50.53745 | 0.40662 | 23357 ft | 327 kts | 142° |
| 2026-04-23 19:31 | 50.51972 | 0.42917 | 23359 ft | 327 kts | 142° |
| 2026-04-23 19:32 | 50.50202 | 0.45164 | 23351 ft | 327 kts | 142° |
| 2026-04-23 19:32 | 50.48432 | 0.47408 | 23336 ft | 327 kts | 141° |
| 2026-04-23 19:32 | 50.46662 | 0.49650 | 23347 ft | 328 kts | 141° |
| 2026-04-23 19:32 | 50.44894 | 0.51884 | 23344 ft | 322 kts | 141° |
| 2026-04-23 19:33 | 50.43163 | 0.54068 | 23130 ft | 318 kts | 141° |
| 2026-04-23 19:33 | 50.41459 | 0.56218 | 22950 ft | 312 kts | 141° |
| 2026-04-23 19:33 | 50.38108 | 0.60441 | 22298 ft | 306 kts | 141° |
| 2026-04-23 19:34 | 50.36451 | 0.62524 | 21957 ft | 304 kts | 141° |
| 2026-04-23 19:34 | 50.34808 | 0.64588 | 21638 ft | 301 kts | 141° |
| 2026-04-23 19:34 | 50.31573 | 0.68658 | 20991 ft | 296 kts | 141° |
| 2026-04-23 19:35 | 50.29972 | 0.70671 | 20661 ft | 295 kts | 141° |
| 2026-04-23 19:35 | 50.28377 | 0.72675 | 20349 ft | 293 kts | 141° |
| 2026-04-23 19:35 | 50.26795 | 0.74662 | 20027 ft | 291 kts | 141° |
| 2026-04-23 19:35 | 50.25216 | 0.76642 | 19704 ft | 290 kts | 141° |
| 2026-04-23 19:36 | 50.23646 | 0.78610 | 19395 ft | 289 kts | 141° |
| 2026-04-23 19:36 | 50.22080 | 0.80571 | 19076 ft | 287 kts | 141° |
| 2026-04-23 19:36 | 50.20520 | 0.82521 | 18743 ft | 287 kts | 141° |
| 2026-04-23 19:36 | 50.18967 | 0.84469 | 18416 ft | 286 kts | 139° |
| 2026-04-23 19:37 | 50.17543 | 0.86631 | 18069 ft | 285 kts | 132° |
| 2026-04-23 19:37 | 50.16233 | 0.88956 | 17734 ft | 284 kts | 131° |
| 2026-04-23 19:37 | 50.14958 | 0.91286 | 17435 ft | 281 kts | 130° |
| 2026-04-23 19:37 | 50.13704 | 0.93573 | 17103 ft | 280 kts | 131° |
| 2026-04-23 19:38 | 50.12851 | 0.95121 | 16897 ft | 279 kts | 131° |
| 2026-04-23 19:38 | 50.11828 | 0.96967 | 16654 ft | 278 kts | 131° |
| 2026-04-23 19:38 | 50.10581 | 0.99204 | 16359 ft | 276 kts | 131° |
| 2026-04-23 19:38 | 50.09323 | 1.01452 | 16057 ft | 275 kts | 131° |
| 2026-04-23 19:39 | 50.08067 | 1.03688 | 15760 ft | 274 kts | 131° |
| 2026-04-23 19:39 | 50.06814 | 1.05912 | 15461 ft | 273 kts | 131° |
| 2026-04-23 19:39 | 50.05565 | 1.08127 | 15164 ft | 272 kts | 131° |
| 2026-04-23 19:39 | 50.04319 | 1.10333 | 14857 ft | 271 kts | 131° |
| 2026-04-23 19:40 | 50.03076 | 1.12532 | 14568 ft | 270 kts | 130° |
| 2026-04-23 19:40 | 50.01834 | 1.14726 | 14267 ft | 270 kts | 130° |
| 2026-04-23 19:40 | 50.00595 | 1.16912 | 13956 ft | 269 kts | 130° |
| 2026-04-23 19:40 | 49.99361 | 1.19088 | 13637 ft | 268 kts | 130° |
| 2026-04-23 19:41 | 49.98132 | 1.21255 | 13330 ft | 267 kts | 130° |
| 2026-04-23 19:41 | 49.96907 | 1.23412 | 13018 ft | 266 kts | 130° |
| 2026-04-23 19:41 | 49.95686 | 1.25558 | 12724 ft | 264 kts | 130° |
| 2026-04-23 19:41 | 49.94469 | 1.27695 | 12429 ft | 264 kts | 131° |
| 2026-04-23 19:42 | 49.93223 | 1.29776 | 12147 ft | 264 kts | 135° |
| 2026-04-23 19:42 | 49.91876 | 1.31757 | 11881 ft | 270 kts | 136° |
| 2026-04-23 19:42 | 49.90473 | 1.33762 | 11598 ft | 278 kts | 136° |
| 2026-04-23 19:42 | 49.89040 | 1.35805 | 11299 ft | 283 kts | 136° |
| 2026-04-23 19:43 | 49.87590 | 1.37876 | 10982 ft | 282 kts | 136° |
| 2026-04-23 19:43 | 49.86154 | 1.39933 | 10683 ft | 280 kts | 136° |
| 2026-04-23 19:43 | 49.84732 | 1.41974 | 10449 ft | 276 kts | 136° |
| 2026-04-23 19:43 | 49.83350 | 1.43958 | 10390 ft | 265 kts | 136° |
| 2026-04-23 19:44 | 49.82025 | 1.45862 | 10328 ft | 255 kts | 136° |
| 2026-04-23 19:44 | 49.80744 | 1.47704 | 10240 ft | 247 kts | 136° |
| 2026-04-23 19:44 | 49.79508 | 1.49481 | 10138 ft | 239 kts | 136° |
| 2026-04-23 19:44 | 49.78296 | 1.51222 | 9894 ft | 237 kts | 136° |
| 2026-04-23 19:45 | 49.77083 | 1.52967 | 9574 ft | 238 kts | 136° |
| 2026-04-23 19:45 | 49.75872 | 1.54706 | 9288 ft | 238 kts | 136° |
| 2026-04-23 19:45 | 49.74662 | 1.56442 | 9017 ft | 236 kts | 136° |
| 2026-04-23 19:45 | 49.73468 | 1.58154 | 8738 ft | 232 kts | 135° |
| 2026-04-23 19:46 | 49.72290 | 1.59843 | 8432 ft | 230 kts | 136° |
| 2026-04-23 19:46 | 49.71116 | 1.61525 | 8044 ft | 231 kts | 136° |
| 2026-04-23 19:46 | 49.69942 | 1.63206 | 7753 ft | 229 kts | 136° |
| 2026-04-23 19:46 | 49.68786 | 1.64859 | 7465 ft | 225 kts | 135° |
| 2026-04-23 19:47 | 49.68028 | 1.65943 | 7291 ft | 223 kts | 135° |
| 2026-04-23 19:47 | 49.66546 | 1.68060 | 7140 ft | 213 kts | 135° |
| 2026-04-23 19:47 | 49.65462 | 1.69610 | 6929 ft | 212 kts | 135° |
| 2026-04-23 19:47 | 49.64378 | 1.71156 | 6693 ft | 212 kts | 135° |
| 2026-04-23 19:48 | 49.63294 | 1.72701 | 6424 ft | 211 kts | 135° |
| 2026-04-23 19:48 | 49.62222 | 1.74228 | 6118 ft | 209 kts | 135° |
| 2026-04-23 19:48 | 49.61164 | 1.75731 | 5834 ft | 205 kts | 135° |
| 2026-04-23 19:48 | 49.60176 | 1.77287 | 5473 ft | 202 kts | 125° |
| 2026-04-23 19:49 | 49.59402 | 1.79065 | 5175 ft | 198 kts | 121° |
| 2026-04-23 19:49 | 49.58662 | 1.80828 | 4879 ft | 194 kts | 121° |
| 2026-04-23 19:49 | 49.57930 | 1.82536 | 4613 ft | 189 kts | 122° |
| 2026-04-23 19:49 | 49.57213 | 1.84191 | 4364 ft | 183 kts | 122° |
| 2026-04-23 19:50 | 49.56508 | 1.85811 | 4125 ft | 181 kts | 121° |
| 2026-04-23 19:50 | 49.55816 | 1.87401 | 3883 ft | 177 kts | 121° |
| 2026-04-23 19:50 | 49.55137 | 1.88958 | 3653 ft | 173 kts | 121° |
| 2026-04-23 19:50 | 49.54475 | 1.90480 | 3425 ft | 169 kts | 121° |
| 2026-04-23 19:51 | 49.53828 | 1.91964 | 3198 ft | 165 kts | 120° |
| 2026-04-23 19:51 | 49.53199 | 1.93412 | 2963 ft | 161 kts | 119° |
| 2026-04-23 19:51 | 49.52589 | 1.94811 | 2759 ft | 154 kts | 118° |
| 2026-04-23 19:51 | 49.51989 | 1.96194 | 2565 ft | 155 kts | 118° |
| 2026-04-23 19:52 | 49.51596 | 1.97099 | 2434 ft | 152 kts | 118° |
| 2026-04-23 19:52 | 49.50820 | 1.98881 | 2147 ft | 145 kts | 117° |
| 2026-04-23 19:52 | 49.50270 | 2.00150 | 1964 ft | 141 kts | 117° |
| 2026-04-23 19:52 | 49.49748 | 2.01350 | 1791 ft | 131 kts | 117° |
| 2026-04-23 19:53 | 49.49242 | 2.02519 | 1623 ft | 133 kts | 115° |
| 2026-04-23 19:53 | 49.48724 | 2.03714 | 1433 ft | 135 kts | 116° |
| 2026-04-23 19:53 | 49.48199 | 2.04927 | 1256 ft | 141 kts | 118° |
| 2026-04-23 19:53 | 49.47645 | 2.06204 | 1056 ft | 144 kts | 120° |
| 2026-04-23 19:54 | 49.47083 | 2.07495 | 874 ft | 145 kts | 118° |
| 2026-04-23 19:54 | 49.46517 | 2.08796 | 659 ft | 148 kts | 120° |
| 2026-04-23 19:54 | 49.45947 | 2.10113 | 464 ft | 150 kts | 120° |
| 2026-04-23 19:54 | 49.45379 | 2.11421 | 353 ft | 138 kts | 124° |
| 2026-04-23 19:55 | 49.44968 | 2.12366 | 359 ft | 74 kts | 123° |
| 2026-04-23 19:55 | 49.44755 | 2.12856 | 357 ft | 39 kts | 124° |
| 2026-04-23 19:55 | 49.44677 | 2.13046 | 359 ft | 18 kts | 107° |
| 2026-04-23 19:55 | 49.44656 | 2.13154 | 363 ft | 5 kts | 204° |
| 2026-04-23 19:56 | 49.44646 | 2.13120 | 359 ft | 6 kts | 270° |
| 2026-04-23 19:56 | 49.44673 | 2.13046 | 359 ft | 12 kts | 303° |
| 2026-04-23 19:56 | 49.44737 | 2.12896 | 357 ft | 21 kts | 303° |
| 2026-04-23 19:56 | 49.44833 | 2.12676 | 356 ft | 29 kts | 304° |
| 2026-04-23 19:57 | 49.44945 | 2.12416 | 359 ft | 28 kts | 303° |
| 2026-04-23 19:57 | 49.45052 | 2.12171 | 359 ft | 27 kts | 304° |
| 2026-04-23 19:57 | 49.45153 | 2.11942 | 363 ft | 25 kts | 304° |
| 2026-04-23 19:57 | 49.45246 | 2.11729 | 356 ft | 23 kts | 304° |
| 2026-04-23 19:58 | 49.45334 | 2.11526 | 354 ft | 22 kts | 304° |
| 2026-04-23 19:58 | 49.45419 | 2.11329 | 359 ft | 22 kts | 307° |
| 2026-04-23 19:58 | 49.45528 | 2.11384 | 356 ft | 19 kts | 41° |
| 2026-04-23 19:58 | 49.45636 | 2.11531 | 350 ft | 21 kts | 41° |
| 2026-04-23 19:59 | 49.45732 | 2.11601 | 350 ft | 14 kts | 328° |
| 2026-04-23 19:59 | 49.45793 | 2.11496 | 352 ft | 13 kts | 303° |
| 2026-04-23 19:59 | 49.45765 | 2.11381 | 354 ft | 13 kts | 221° |
| 2026-04-23 19:59 | 49.45704 | 2.11286 | 357 ft | 13 kts | 248° |
| 2026-04-23 20:00 | 49.45730 | 2.11166 | 358 ft | 12 kts | 303° |
| 2026-04-23 20:00 | 49.45768 | 2.11077 | 353 ft | 6 kts | 304° |
| 2026-04-23 20:00 | 49.45807 | 2.11084 | 356 ft | 6 kts | 32° |
| 2026-04-23 20:00 | 49.45824 | 2.11101 | 350 ft | 1 kts | 33° |
| 2026-04-23 20:01 | 49.45828 | 2.11105 | 350 ft | 0 kts | 33° |
| 2026-04-23 20:01 | 49.45828 | 2.11106 | 350 ft | 0 kts | 33° |
| 2026-04-23 20:01 | 49.45829 | 2.11106 | 350 ft | 0 kts | 33° |